createdAt,value
2023-02-15T00:01:57.322Z,17.47
2023-02-15T00:04:25.627Z,15.70
2023-02-15T00:06:52.366Z,18.23
2023-02-15T00:09:18.861Z,20.80
2023-02-15T00:11:51.021Z,20.67
2023-02-15T00:14:22.861Z,21.60
2023-02-15T00:16:51.347Z,20.53
2023-02-15T00:19:19.384Z,18.87
2023-02-15T00:21:47.177Z,24.37
2023-02-15T00:24:16.108Z,16.70
2023-02-15T00:26:43.973Z,16.83
2023-02-15T00:29:11.872Z,19.50
2023-02-15T00:31:38.684Z,25.87
2023-02-15T00:34:08.293Z,20.47
2023-02-15T00:36:34.949Z,20.77
2023-02-15T00:39:01.664Z,19.10
2023-02-15T00:41:28.563Z,19.13
2023-02-15T00:43:55.180Z,20.70
2023-02-15T00:46:21.860Z,21.93
2023-02-15T00:48:48.449Z,24.33
2023-02-15T00:51:15.118Z,21.60
2023-02-15T00:53:41.931Z,19.27
2023-02-15T00:56:08.883Z,20.97
2023-02-15T00:58:35.729Z,19.27
2023-02-15T01:01:07.757Z,20.57
2023-02-15T01:03:34.998Z,16.80
2023-02-15T01:06:02.790Z,17.40
2023-02-15T01:08:29.730Z,22.93
2023-02-15T01:10:56.651Z,20.73
2023-02-15T01:13:23.569Z,20.80
2023-02-15T01:15:55.598Z,17.40
2023-02-15T01:18:22.967Z,18.70
2023-02-15T01:20:50.042Z,19.77
2023-02-15T01:23:16.781Z,19.73
2023-02-15T01:25:46.124Z,19.50
2023-02-15T01:28:12.726Z,22.40
2023-02-15T01:30:39.214Z,16.23
2023-02-15T01:33:05.855Z,18.83
2023-02-15T01:35:32.789Z,16.43
2023-02-15T01:37:59.855Z,19.57
2023-02-15T01:40:26.733Z,15.93
2023-02-15T01:42:55.071Z,17.60
2023-02-15T01:45:23.230Z,17.10
2023-02-15T01:48:02.842Z,16.67
2023-02-15T01:50:29.522Z,17.33
2023-02-15T01:53:05.056Z,17.67
2023-02-15T01:55:35.289Z,18.13
2023-02-15T01:58:02.394Z,16.23
2023-02-15T02:00:29.501Z,21.73
2023-02-15T02:02:58.208Z,15.50
2023-02-15T02:05:25.580Z,16.40
2023-02-15T02:07:53.634Z,16.50
2023-02-15T02:10:24.125Z,16.00
2023-02-15T02:12:54.112Z,14.60
2023-02-15T02:15:27.310Z,18.23
2023-02-15T02:18:32.547Z,16.30
2023-02-15T02:21:21.108Z,17.70
2023-02-15T02:24:10.106Z,14.20
2023-02-15T02:27:10.413Z,16.13
2023-02-15T02:30:07.334Z,16.50
2023-02-15T02:32:52.927Z,18.93
2023-02-15T02:35:22.744Z,17.13
2023-02-15T02:38:11.303Z,20.90
2023-02-15T02:40:43.783Z,16.77
2023-02-15T02:43:21.805Z,15.47
2023-02-15T02:45:58.571Z,15.47
2023-02-15T02:48:28.010Z,17.80
2023-02-15T02:50:54.537Z,18.67
2023-02-15T02:53:21.074Z,15.50
2023-02-15T02:56:10.963Z,16.17
2023-02-15T02:58:37.415Z,20.70
2023-02-15T03:01:06.797Z,14.97
2023-02-15T03:03:37.861Z,14.57
2023-02-15T03:06:18.813Z,19.00
2023-02-15T03:08:56.487Z,20.53
2023-02-15T03:11:23.043Z,19.60
2023-02-15T03:13:50.209Z,18.53
2023-02-15T03:16:27.214Z,18.53
2023-02-15T03:19:03.196Z,19.83
2023-02-15T03:21:58.364Z,16.63
2023-02-15T03:24:29.472Z,18.87
2023-02-15T03:26:56.980Z,15.43
2023-02-15T03:29:26.129Z,17.00
2023-02-15T03:31:57.692Z,18.60
2023-02-15T03:34:24.392Z,20.30
2023-02-15T03:37:08.133Z,14.10
2023-02-15T03:39:38.659Z,14.60
2023-02-15T03:42:12.996Z,16.80
2023-02-15T03:44:55.071Z,15.00
2023-02-15T03:47:25.907Z,19.73
2023-02-15T03:50:03.767Z,15.63
2023-02-15T03:52:32.085Z,16.70
2023-02-15T03:54:58.899Z,16.87
2023-02-15T03:57:46.348Z,17.90
2023-02-15T04:00:36.587Z,17.10
2023-02-15T04:03:20.915Z,18.80
2023-02-15T04:05:47.655Z,23.20
2023-02-15T04:08:14.421Z,18.20
2023-02-15T04:10:53.074Z,15.63
2023-02-15T04:13:32.122Z,24.40
2023-02-15T04:16:05.591Z,24.70
2023-02-15T04:18:59.935Z,16.03
2023-02-15T04:21:47.610Z,17.50
2023-02-15T04:24:33.504Z,21.00
2023-02-15T04:27:00.667Z,14.63
2023-02-15T04:29:28.259Z,18.13
2023-02-15T04:31:56.363Z,18.13
2023-02-15T04:34:22.974Z,21.30
2023-02-15T04:36:51.160Z,19.60
2023-02-15T04:39:18.785Z,17.73
2023-02-15T04:41:45.955Z,19.10
2023-02-15T04:44:12.679Z,15.50
2023-02-15T04:46:39.216Z,20.00
2023-02-15T04:49:05.756Z,18.03
2023-02-15T04:51:32.263Z,18.40
2023-02-15T04:53:59.119Z,19.83
2023-02-15T04:56:25.635Z,19.37
2023-02-15T04:58:52.252Z,23.80
2023-02-15T05:01:19.882Z,17.33
2023-02-15T05:03:46.494Z,19.63
2023-02-15T05:06:13.346Z,18.83
2023-02-15T05:08:40.031Z,19.50
2023-02-15T05:11:06.575Z,20.67
2023-02-15T05:13:33.933Z,18.63
2023-02-15T05:16:00.958Z,19.30
2023-02-15T05:18:27.946Z,19.93
2023-02-15T05:20:54.655Z,20.70
2023-02-15T05:23:21.439Z,19.53
2023-02-15T05:26:08.203Z,19.13
2023-02-15T05:28:36.282Z,24.63
2023-02-15T05:31:05.912Z,19.27
2023-02-15T05:33:33.279Z,21.40
2023-02-15T05:36:02.035Z,22.63
2023-02-15T05:38:31.294Z,22.83
2023-02-15T05:40:59.744Z,20.60
2023-02-15T05:43:26.390Z,22.07
2023-02-15T05:45:55.463Z,19.97
2023-02-15T05:48:24.265Z,20.60
2023-02-15T05:51:05.109Z,24.80
2023-02-15T05:53:33.544Z,24.33
2023-02-15T05:56:01.512Z,21.77
2023-02-15T05:58:34.130Z,20.93
2023-02-15T06:01:00.750Z,24.30
2023-02-15T06:03:29.375Z,25.37
2023-02-15T06:05:56.152Z,23.80
2023-02-15T06:08:22.736Z,22.10
2023-02-15T06:10:49.332Z,28.93
2023-02-15T06:13:15.872Z,29.60
2023-02-15T06:15:42.502Z,26.80
2023-02-15T06:18:09.310Z,22.80
2023-02-15T06:20:35.778Z,22.20
2023-02-15T06:23:02.449Z,24.53
2023-02-15T06:25:29.891Z,25.13
2023-02-15T06:27:56.441Z,23.80
2023-02-15T06:30:23.386Z,21.77
2023-02-15T06:32:49.918Z,27.80
2023-02-15T06:35:16.479Z,23.70
2023-02-15T06:37:43.095Z,29.10
2023-02-15T06:40:09.972Z,26.50
2023-02-15T06:42:36.804Z,24.47
2023-02-15T06:45:04.320Z,26.10
2023-02-15T06:47:31.436Z,30.07
2023-02-15T06:49:58.625Z,30.87
2023-02-15T06:52:25.318Z,34.90
2023-02-15T06:54:52.000Z,27.40
2023-02-15T06:57:18.510Z,27.47
2023-02-15T06:59:45.003Z,29.27
2023-02-15T07:02:15.048Z,30.00
2023-02-15T07:04:41.842Z,29.60
2023-02-15T07:07:12.321Z,29.50
2023-02-15T07:09:39.613Z,28.57
2023-02-15T07:12:24.798Z,28.07
2023-02-15T07:14:51.467Z,30.17
2023-02-15T07:17:35.052Z,28.43
2023-02-15T07:20:10.918Z,29.43
2023-02-15T07:22:38.158Z,29.93
2023-02-15T07:25:06.239Z,31.70
2023-02-15T07:27:33.359Z,31.23
2023-02-15T07:30:00.689Z,35.90
2023-02-15T07:32:32.103Z,30.43
2023-02-15T07:34:59.710Z,30.93
2023-02-15T07:37:26.980Z,29.73
2023-02-15T07:39:54.033Z,28.07
2023-02-15T07:42:22.039Z,31.03
2023-02-15T07:44:48.823Z,32.40
2023-02-15T07:47:15.673Z,31.50
2023-02-15T07:49:42.661Z,31.40
2023-02-15T07:52:09.517Z,30.97
2023-02-15T07:54:36.051Z,29.50
2023-02-15T07:57:03.031Z,31.43
2023-02-15T07:59:29.603Z,27.13
2023-02-15T08:01:57.599Z,32.17
2023-02-15T08:04:24.844Z,29.37
2023-02-15T08:06:54.200Z,47.10
2023-02-15T08:09:21.378Z,47.03
2023-02-15T08:11:48.237Z,40.33
2023-02-15T08:14:17.123Z,40.13
2023-02-15T08:16:45.550Z,37.50
2023-02-15T08:19:22.362Z,36.23
2023-02-15T08:22:08.484Z,32.60
2023-02-15T08:24:38.014Z,32.10
2023-02-15T08:27:06.565Z,31.60
2023-02-15T08:29:34.933Z,27.70
2023-02-15T08:32:04.422Z,28.53
2023-02-15T08:34:33.379Z,28.77
2023-02-15T08:37:00.148Z,23.80
2023-02-15T08:39:26.774Z,29.97
2023-02-15T08:41:53.650Z,26.40
2023-02-15T08:44:21.446Z,28.23
2023-02-15T08:46:49.590Z,27.97
2023-02-15T08:49:19.148Z,25.70
2023-02-15T08:51:46.189Z,31.30
2023-02-15T08:54:18.722Z,26.87
2023-02-15T08:56:46.296Z,27.97
2023-02-15T08:59:21.532Z,27.50
2023-02-15T09:01:50.025Z,28.23
2023-02-15T09:04:17.664Z,23.23
2023-02-15T09:06:47.913Z,23.97
2023-02-15T09:09:15.638Z,22.73
2023-02-15T09:11:44.378Z,26.10
2023-02-15T09:14:16.131Z,24.60
2023-02-15T09:16:49.837Z,23.17
2023-02-15T09:19:18.414Z,22.27
2023-02-15T09:21:44.990Z,22.23
2023-02-15T09:24:14.169Z,22.10
2023-02-15T09:26:46.520Z,24.10
2023-02-15T09:29:14.275Z,24.93
2023-02-15T09:31:51.413Z,24.40
2023-02-15T09:34:20.526Z,20.57
2023-02-15T09:36:47.708Z,22.20
2023-02-15T09:39:24.485Z,21.80
2023-02-15T09:42:12.949Z,23.30
2023-02-15T09:45:01.166Z,22.23
2023-02-15T09:47:46.116Z,21.80
2023-02-15T09:50:12.625Z,25.53
2023-02-15T09:52:49.245Z,20.57
2023-02-15T09:55:19.647Z,19.57
2023-02-15T09:57:46.272Z,21.93
2023-02-15T10:00:24.250Z,19.90
2023-02-15T10:03:05.904Z,22.03
2023-02-15T10:06:03.362Z,18.33
2023-02-15T10:08:42.034Z,20.63
2023-02-15T10:11:35.122Z,20.20
2023-02-15T10:14:21.369Z,19.37
2023-02-15T10:16:55.060Z,19.77
2023-02-15T10:19:37.226Z,19.10
2023-02-15T10:22:10.050Z,19.70
2023-02-15T10:24:41.357Z,20.60
2023-02-15T10:27:14.190Z,19.07
2023-02-15T10:29:53.593Z,21.03
2023-02-15T10:32:25.486Z,27.43
2023-02-15T10:34:57.223Z,20.57
2023-02-15T10:37:42.019Z,20.67
2023-02-15T10:40:27.130Z,18.57
2023-02-15T10:42:59.898Z,19.90
2023-02-15T10:45:42.887Z,17.30
2023-02-15T10:48:31.977Z,19.63
2023-02-15T10:51:00.821Z,18.60
2023-02-15T10:53:52.241Z,17.53
2023-02-15T10:56:42.448Z,18.07
2023-02-15T10:59:18.128Z,16.87
2023-02-15T11:01:53.805Z,16.50
2023-02-15T11:04:44.613Z,16.53
2023-02-15T11:07:19.101Z,15.70
2023-02-15T11:09:49.398Z,16.63
2023-02-15T11:12:19.679Z,17.17
2023-02-15T11:14:55.102Z,17.67
2023-02-15T11:17:36.028Z,16.40
2023-02-15T11:20:19.420Z,16.00
2023-02-15T11:22:49.548Z,15.60
2023-02-15T11:25:19.756Z,16.37
2023-02-15T11:27:47.811Z,15.87
2023-02-15T11:30:16.408Z,13.27
2023-02-15T11:32:46.081Z,14.50
2023-02-15T11:35:17.358Z,16.83
2023-02-15T11:37:48.675Z,14.33
2023-02-15T11:40:41.195Z,14.10
2023-02-15T11:43:32.507Z,14.27
2023-02-15T11:45:59.102Z,14.43
2023-02-15T11:48:25.753Z,13.23
2023-02-15T11:50:52.474Z,14.80
2023-02-15T11:53:22.214Z,13.97
2023-02-15T11:55:51.975Z,14.40
2023-02-15T11:58:29.268Z,14.40
2023-02-15T12:01:01.975Z,13.23
2023-02-15T12:03:45.585Z,15.40
2023-02-15T12:06:33.616Z,13.37
2023-02-15T12:09:06.441Z,15.37
2023-02-15T12:11:40.721Z,14.17
2023-02-15T12:14:09.977Z,13.27
2023-02-15T12:17:00.666Z,13.00
2023-02-15T12:19:30.239Z,11.20
2023-02-15T12:21:57.341Z,11.90
2023-02-15T12:24:33.870Z,14.00
2023-02-15T12:27:05.052Z,11.47
2023-02-15T12:29:56.362Z,13.57
2023-02-15T12:32:28.501Z,11.73
2023-02-15T12:35:01.654Z,11.47
2023-02-15T12:37:32.872Z,12.97
2023-02-15T12:40:01.073Z,10.87
2023-02-15T12:42:30.144Z,14.60
2023-02-15T12:45:05.635Z,15.60
2023-02-15T12:47:33.467Z,11.20
2023-02-15T12:50:18.082Z,14.13
2023-02-15T12:52:50.251Z,12.10
2023-02-15T12:55:28.213Z,12.90
2023-02-15T12:58:09.523Z,13.33
2023-02-15T13:00:36.464Z,13.33
2023-02-15T13:03:03.834Z,16.20
2023-02-15T13:05:44.205Z,11.90
2023-02-15T13:08:11.991Z,13.90
2023-02-15T13:10:42.508Z,14.43
2023-02-15T13:13:18.748Z,15.63
2023-02-15T13:15:48.319Z,13.90
2023-02-15T13:18:22.941Z,14.63
2023-02-15T13:20:49.679Z,15.80
2023-02-15T13:23:28.369Z,10.80
2023-02-15T13:25:57.065Z,13.40
2023-02-15T13:28:27.878Z,10.63
2023-02-15T13:30:54.612Z,12.40
2023-02-15T13:33:35.908Z,12.20
2023-02-15T13:36:24.014Z,12.20
2023-02-15T13:38:56.764Z,11.93
2023-02-15T13:41:28.512Z,14.90
2023-02-15T13:44:04.529Z,13.13
2023-02-15T13:47:03.898Z,9.60
2023-02-15T13:49:34.175Z,11.87
2023-02-15T13:52:15.016Z,13.07
2023-02-15T13:55:12.022Z,14.60
2023-02-15T13:57:56.455Z,14.43
2023-02-15T14:01:01.322Z,10.90
2023-02-15T14:03:53.770Z,13.03
2023-02-15T14:06:20.271Z,14.53
2023-02-15T14:09:08.765Z,11.03
2023-02-15T14:11:47.413Z,15.60
2023-02-15T14:14:32.452Z,14.87
2023-02-15T14:17:12.856Z,8.57
2023-02-15T14:19:50.711Z,11.17
2023-02-15T14:22:32.959Z,9.30
2023-02-15T14:25:14.720Z,9.37
2023-02-15T14:27:59.722Z,12.60
2023-02-15T14:30:48.106Z,10.73
2023-02-15T14:33:14.966Z,10.43
2023-02-15T14:35:43.711Z,9.53
2023-02-15T14:38:34.066Z,26.93
2023-02-15T14:41:04.487Z,12.00
2023-02-15T14:44:01.569Z,13.83
2023-02-15T14:46:32.390Z,11.60
2023-02-15T14:49:23.356Z,11.40
2023-02-15T14:51:50.973Z,8.70
2023-02-15T14:54:17.953Z,12.70
2023-02-15T14:56:48.243Z,13.87
2023-02-15T14:59:17.255Z,11.10
2023-02-15T15:01:53.788Z,9.60
2023-02-15T15:04:28.974Z,11.77
2023-02-15T15:07:03.650Z,10.20
2023-02-15T15:09:31.065Z,14.00
2023-02-15T15:12:26.856Z,14.00
2023-02-15T15:14:55.073Z,11.73
2023-02-15T15:17:33.934Z,12.40
2023-02-15T15:20:14.563Z,12.30
2023-02-15T15:22:42.878Z,14.90
2023-02-15T15:25:45.725Z,10.97
2023-02-15T15:28:34.222Z,12.50
2023-02-15T15:31:15.077Z,9.97
2023-02-15T15:34:06.167Z,12.83
2023-02-15T15:37:07.724Z,10.90
2023-02-15T15:40:02.152Z,12.83
2023-02-15T15:42:47.332Z,8.47
2023-02-15T15:45:39.225Z,9.50
2023-02-15T15:48:17.738Z,10.93
2023-02-15T15:50:44.747Z,12.50
2023-02-15T15:53:20.564Z,9.53
2023-02-15T15:55:48.678Z,12.57
2023-02-15T15:58:18.424Z,7.60
2023-02-15T16:00:48.741Z,10.40
2023-02-15T16:03:17.134Z,12.73
2023-02-15T16:05:44.018Z,9.80
2023-02-15T16:08:10.930Z,9.50
2023-02-15T16:10:38.966Z,10.57
2023-02-15T16:13:07.178Z,9.23
2023-02-15T16:15:45.314Z,10.80
2023-02-15T16:18:17.858Z,10.13
2023-02-15T16:20:56.844Z,16.33
2023-02-15T16:24:05.511Z,10.57
2023-02-15T16:26:47.284Z,8.77
2023-02-15T16:29:18.612Z,12.47
2023-02-15T16:32:04.601Z,10.30
2023-02-15T16:34:33.521Z,12.23
2023-02-15T16:37:20.579Z,12.07
2023-02-15T16:39:49.111Z,20.97
2023-02-15T16:42:17.489Z,12.43
2023-02-15T16:44:49.445Z,11.03
2023-02-15T16:47:20.394Z,12.53
2023-02-15T16:49:49.495Z,14.43
2023-02-15T16:52:25.094Z,14.50
2023-02-15T16:54:56.108Z,16.30
2023-02-15T16:57:25.993Z,16.37
2023-02-15T16:59:54.948Z,27.47
2023-02-15T17:02:54.446Z,28.43
2023-02-15T17:05:21.049Z,22.13
2023-02-15T17:08:08.042Z,20.20
2023-02-15T17:10:37.479Z,29.13
2023-02-15T17:13:13.818Z,28.47
2023-02-15T17:15:44.018Z,29.03
2023-02-15T17:18:18.808Z,25.77
2023-02-15T17:20:46.230Z,17.37
2023-02-15T17:23:33.997Z,17.30
2023-02-15T17:26:03.600Z,14.83
2023-02-15T17:28:32.113Z,19.80
2023-02-15T17:30:59.245Z,16.90
2023-02-15T17:33:46.573Z,20.57
2023-02-15T17:36:17.072Z,22.63
2023-02-15T17:38:58.996Z,20.27
2023-02-15T17:41:32.209Z,16.00
2023-02-15T17:43:58.991Z,18.30
2023-02-15T17:46:28.332Z,25.17
2023-02-15T17:48:56.217Z,25.20
2023-02-15T17:51:23.636Z,28.83
2023-02-15T17:54:08.777Z,37.57
2023-02-15T17:56:36.831Z,32.97
2023-02-15T17:59:07.579Z,22.10
2023-02-15T18:01:57.816Z,23.00
2023-02-15T18:04:43.720Z,18.73
2023-02-15T18:07:30.370Z,25.20
2023-02-15T18:10:16.081Z,20.90
2023-02-15T18:12:42.715Z,16.93
2023-02-15T18:15:11.528Z,18.60
2023-02-15T18:17:41.599Z,20.63
2023-02-15T18:20:18.157Z,26.93
2023-02-15T18:22:46.370Z,18.57
2023-02-15T18:25:18.542Z,21.30
2023-02-15T18:27:45.557Z,17.43
2023-02-15T18:30:31.258Z,18.70
2023-02-15T18:32:58.587Z,21.87
2023-02-15T18:35:27.338Z,22.07
2023-02-15T18:37:54.396Z,21.70
2023-02-15T18:40:23.382Z,21.93
2023-02-15T18:42:50.062Z,18.23
2023-02-15T18:45:18.509Z,22.47
2023-02-15T18:47:46.113Z,32.17
2023-02-15T18:50:18.062Z,30.57
2023-02-15T18:52:50.905Z,21.80
2023-02-15T18:55:23.164Z,28.73
2023-02-15T18:57:51.848Z,26.30
2023-02-15T19:00:20.886Z,18.90
2023-02-15T19:02:48.144Z,20.03
2023-02-15T19:05:18.568Z,22.13
2023-02-15T19:07:48.351Z,19.00
2023-02-15T19:10:18.917Z,19.83
2023-02-15T19:12:45.665Z,17.83
2023-02-15T19:15:21.466Z,26.13
2023-02-15T19:17:48.027Z,13.10
2023-02-15T19:20:39.217Z,17.37
2023-02-15T19:23:19.470Z,16.97
2023-02-15T19:25:47.359Z,20.73
2023-02-15T19:28:32.813Z,23.20
2023-02-15T19:30:59.464Z,18.37
2023-02-15T19:33:26.553Z,16.70
2023-02-15T19:35:57.165Z,18.10
2023-02-15T19:38:26.924Z,22.53
2023-02-15T19:40:53.821Z,20.30
2023-02-15T19:43:26.053Z,16.10
2023-02-15T19:45:53.082Z,23.10
2023-02-15T19:48:19.996Z,21.97
2023-02-15T19:50:47.418Z,23.07
2023-02-15T19:53:23.720Z,20.43
2023-02-15T19:55:50.827Z,19.40
2023-02-15T19:58:20.483Z,21.13
2023-02-15T20:00:48.667Z,22.23
2023-02-15T20:03:15.799Z,18.60
2023-02-15T20:05:42.924Z,22.43
2023-02-15T20:08:21.493Z,22.23
2023-02-15T20:10:48.401Z,20.30
2023-02-15T20:13:25.526Z,18.37
2023-02-15T20:15:52.529Z,21.87
2023-02-15T20:18:22.128Z,25.93
2023-02-15T20:20:53.906Z,24.30
2023-02-15T20:23:24.035Z,29.10
2023-02-15T20:25:50.629Z,19.17
2023-02-15T20:28:22.942Z,22.00
2023-02-15T20:30:51.714Z,20.33
2023-02-15T20:33:19.356Z,35.50
2023-02-15T20:35:46.492Z,56.43
2023-02-15T20:38:22.682Z,66.20
2023-02-15T20:41:09.068Z,37.20
2023-02-15T20:43:36.619Z,37.47
2023-02-15T20:46:04.277Z,56.73
2023-02-15T20:48:31.090Z,52.00
2023-02-15T20:51:00.916Z,56.00
2023-02-15T20:53:28.634Z,54.80
2023-02-15T20:55:57.263Z,39.20
2023-02-15T20:58:26.008Z,35.13
2023-02-15T21:00:59.505Z,36.20
2023-02-15T21:03:30.665Z,30.33
2023-02-15T21:05:58.429Z,35.03
2023-02-15T21:08:25.286Z,29.80
2023-02-15T21:10:53.327Z,29.00
2023-02-15T21:13:21.217Z,27.53
2023-02-15T21:15:49.045Z,25.33
2023-02-15T21:18:19.568Z,23.80
2023-02-15T21:20:48.452Z,26.43
2023-02-15T21:23:16.923Z,25.23
2023-02-15T21:25:46.087Z,23.27
2023-02-15T21:28:30.560Z,25.63
2023-02-15T21:30:58.412Z,23.20
2023-02-15T21:33:25.512Z,23.93
2023-02-15T21:35:54.799Z,20.50
2023-02-15T21:38:26.439Z,21.37
2023-02-15T21:40:53.219Z,21.00
2023-02-15T21:43:42.853Z,24.10
2023-02-15T21:46:36.240Z,21.47
2023-02-15T21:49:04.072Z,22.93
2023-02-15T21:51:50.148Z,24.77
2023-02-15T21:54:18.724Z,23.63
2023-02-15T21:56:47.785Z,23.80
2023-02-15T21:59:16.216Z,22.13
2023-02-15T22:01:45.943Z,27.70
2023-02-15T22:04:21.647Z,24.70
2023-02-15T22:06:48.436Z,22.60
2023-02-15T22:09:21.315Z,24.80
2023-02-15T22:11:48.700Z,23.43
2023-02-15T22:14:38.232Z,26.90
2023-02-15T22:17:16.937Z,24.17
2023-02-15T22:19:45.223Z,25.10
2023-02-15T22:22:12.156Z,24.27
2023-02-15T22:24:39.060Z,26.30
2023-02-15T22:27:06.473Z,29.00
2023-02-15T22:29:33.880Z,28.43
2023-02-15T22:32:00.561Z,28.70
2023-02-15T22:34:31.509Z,25.40
2023-02-15T22:36:58.673Z,26.43
2023-02-15T22:39:25.972Z,24.63
2023-02-15T22:41:53.335Z,28.43
2023-02-15T22:44:24.050Z,31.40
2023-02-15T22:46:51.392Z,31.40
2023-02-15T22:49:18.512Z,29.23
2023-02-15T22:51:49.325Z,24.50
2023-02-15T22:54:16.738Z,31.70
2023-02-15T22:56:51.914Z,23.70
2023-02-15T22:59:26.093Z,25.37
2023-02-15T23:01:53.270Z,28.00
2023-02-15T23:04:22.845Z,23.40
2023-02-15T23:06:50.177Z,24.10
2023-02-15T23:09:17.121Z,31.37
2023-02-15T23:11:44.198Z,27.23
2023-02-15T23:14:36.764Z,25.47
2023-02-15T23:17:03.546Z,26.50
2023-02-15T23:19:30.183Z,32.10
2023-02-15T23:21:56.781Z,27.70
2023-02-15T23:24:26.675Z,24.67
2023-02-15T23:26:53.716Z,31.80
2023-02-15T23:29:23.058Z,36.23
2023-02-15T23:31:52.365Z,35.30
2023-02-15T23:34:20.308Z,33.73
2023-02-15T23:36:47.239Z,31.67
2023-02-15T23:39:44.245Z,29.90
2023-02-15T23:42:21.590Z,33.57
2023-02-15T23:44:48.860Z,53.70
2023-02-15T23:47:21.129Z,44.30
2023-02-15T23:49:47.779Z,55.47
2023-02-15T23:52:14.335Z,71.20
2023-02-15T23:54:40.986Z,67.60
2023-02-15T23:57:11.352Z,61.60
2023-02-15T23:59:41.460Z,46.43
